Time;durP1;ratioP1;P1;durP2;ratioP2;P2;SDS_P1;SDS_P2;PMS_P1;PMS_P2;Temp;Humidity;BMP_temperature;BMP_pressure;BME280_temperature;BME280_humidity;BME280_pressure;Samples;Min_cycle;Max_cycle;Signal;HPM_P1;HPM_P2
2023/11/18 00:01:43;;;;;;;4.53;4.13;;;9.40;91.10;;;;;;5000050;28;20477;-43
2023/11/18 00:04:15;;;;;;;4.50;3.90;;;9.40;91.70;;;;;;5009525;28;20461;-44
2023/11/18 00:06:44;;;;;;;4.17;3.77;;;9.40;91.10;;;;;;5001928;28;20469;-44
2023/11/18 00:09:14;;;;;;;4.37;3.90;;;9.40;91.20;;;;;;5008383;28;20442;-44
2023/11/18 00:11:43;;;;;;;4.30;3.90;;;9.40;91.20;;;;;;5007520;28;20465;-44
2023/11/18 00:14:11;;;;;;;4.80;4.10;;;9.40;91.30;;;;;;5009620;28;20453;-43
2023/11/18 00:16:39;;;;;;;4.67;4.20;;;9.40;91.20;;;;;;5007580;28;20464;-44
2023/11/18 00:19:09;;;;;;;4.67;3.90;;;9.40;91.20;;;;;;5003841;28;20472;-44
2023/11/18 00:21:37;;;;;;;4.43;3.70;;;9.40;91.70;;;;;;5009369;28;20489;-44
2023/11/18 00:24:07;;;;;;;5.03;3.50;;;9.40;91.20;;;;;;5012244;28;20440;-43
2023/11/18 00:26:36;;;;;;;4.67;4.17;;;9.40;91.20;;;;;;5003437;28;20551;-45
2023/11/18 00:29:04;;;;;;;5.07;3.83;;;9.40;91.20;;;;;;5011857;28;20939;-44
2023/11/18 00:31:32;;;;;;;5.33;3.97;;;9.40;91.20;;;;;;4983475;28;20854;-43
2023/11/18 00:34:01;;;;;;;4.20;3.80;;;9.30;91.20;;;;;;5001962;28;20531;-44
2023/11/18 00:36:30;;;;;;;4.50;3.90;;;9.40;91.20;;;;;;4989429;28;20473;-43
2023/11/18 00:38:58;;;;;;;4.50;3.57;;;9.40;91.20;;;;;;5006623;28;20437;-43
2023/11/18 00:41:27;;;;;;;5.87;5.27;;;9.40;91.20;;;;;;4987240;28;20469;-43
2023/11/18 00:43:58;;;;;;;4.70;4.30;;;9.30;91.20;;;;;;5009984;28;20467;-44
2023/11/18 00:46:36;;;;;;;5.13;3.70;;;9.30;91.20;;;;;;5003328;28;20849;-43
2023/11/18 00:49:05;;;;;;;4.30;3.60;;;9.30;91.20;;;;;;5003659;28;20444;-44
2023/11/18 00:51:37;;;;;;;5.27;3.90;;;9.30;91.20;;;;;;5010258;28;20671;-43
2023/11/18 00:54:06;;;;;;;4.73;4.27;;;9.30;91.20;;;;;;4994299;28;20436;-43
2023/11/18 00:56:34;;;;;;;5.53;4.33;;;9.30;91.20;;;;;;4988755;28;21060;-44
2023/11/18 00:59:02;;;;;;;4.60;4.20;;;9.30;91.20;;;;;;5007010;28;20440;-44
2023/11/18 01:01:31;;;;;;;3.97;3.50;;;9.30;91.20;;;;;;5001338;28;20465;-44
2023/11/18 01:04:00;;;;;;;5.03;3.77;;;9.30;91.10;;;;;;4992873;28;20556;-44
2023/11/18 01:06:29;;;;;;;6.40;4.77;;;9.30;91.20;;;;;;4989860;28;20469;-43
2023/11/18 01:08:59;;;;;;;4.23;3.83;;;9.30;91.20;;;;;;5007555;28;20532;-43
2023/11/18 01:11:27;;;;;;;4.30;3.70;;;9.30;91.20;;;;;;5005058;28;20463;-43
2023/11/18 01:13:55;;;;;;;4.10;3.70;;;9.30;91.10;;;;;;5011233;28;20440;-44
2023/11/18 01:16:24;;;;;;;4.57;4.10;;;9.30;91.10;;;;;;5007140;28;20461;-44
2023/11/18 01:18:52;;;;;;;4.90;3.40;;;9.30;91.60;;;;;;5006709;28;20436;-43
2023/11/18 01:21:20;;;;;;;4.13;3.73;;;9.30;91.10;;;;;;5001976;28;20465;-43
2023/11/18 01:23:50;;;;;;;3.80;3.50;;;9.30;91.10;;;;;;5009463;28;20457;-43
2023/11/18 01:26:21;;;;;;;4.07;3.67;;;9.30;91.10;;;;;;5005396;28;20449;-43
2023/11/18 01:28:49;;;;;;;4.23;3.80;;;9.30;91.10;;;;;;5000976;28;20499;-44
2023/11/18 01:31:19;;;;;;;3.90;3.50;;;9.30;91.10;;;;;;5004193;28;20464;-44
2023/11/18 01:33:50;;;;;;;3.80;3.50;;;9.30;91.10;;;;;;5003556;28;20445;-44
2023/11/18 01:36:19;;;;;;;5.10;3.80;;;9.30;91.10;;;;;;4992721;28;20497;-43
2023/11/18 01:38:47;;;;;;;3.90;3.37;;;9.30;91.10;;;;;;4981087;28;20426;-45
2023/11/18 01:41:15;;;;;;;4.47;3.60;;;9.30;91.10;;;;;;4989988;28;20504;-43
2023/11/18 01:43:48;;;;;;;5.20;3.90;;;9.30;91.10;;;;;;5009168;28;20460;-44
2023/11/18 01:46:19;;;;;;;4.23;3.83;;;9.30;91.10;;;;;;4987897;28;20538;-43
2023/11/18 01:48:49;;;;;;;4.57;3.60;;;9.30;91.10;;;;;;4997163;28;20450;-44
2023/11/18 01:51:19;;;;;;;3.97;3.60;;;9.30;91.10;;;;;;5000074;28;20457;-43
2023/11/18 01:53:49;;;;;;;3.40;3.10;;;9.30;91.10;;;;;;4992923;28;20524;-44
2023/11/18 01:56:20;;;;;;;4.70;3.67;;;9.30;91.10;;;;;;5002912;28;20460;-44
2023/11/18 01:58:51;;;;;;;3.30;2.83;;;9.30;91.10;;;;;;4988290;28;20527;-43
2023/11/18 02:01:20;;;;;;;3.53;3.10;;;9.30;91.10;;;;;;5003927;28;20512;-44
2023/11/18 02:03:49;;;;;;;3.60;3.30;;;9.30;91.10;;;;;;4988700;28;20477;-44
2023/11/18 02:06:21;;;;;;;4.60;4.20;;;9.30;91.10;;;;;;5004683;28;20554;-44
2023/11/18 02:08:49;;;;;;;3.17;2.87;;;9.30;91.10;;;;;;4984494;28;20438;-43
2023/11/18 02:11:24;;;;;;;3.23;2.90;;;9.30;91.10;;;;;;4998155;28;20997;-43
2023/11/18 02:14:02;;;;;;;3.13;2.83;;;9.30;91.60;;;;;;4987595;28;20462;-44
2023/11/18 02:16:32;;;;;;;4.40;3.27;;;9.30;91.10;;;;;;4979191;28;20464;-44
2023/11/18 02:19:01;;;;;;;3.93;3.27;;;9.30;91.10;;;;;;4985421;28;20453;-43
2023/11/18 02:21:33;;;;;;;3.87;3.47;;;9.20;91.00;;;;;;4989830;28;20974;-44
2023/11/18 02:24:04;;;;;;;4.17;3.20;;;9.20;91.00;;;;;;4972842;28;20496;-43
2023/11/18 02:26:34;;;;;;;3.93;3.57;;;9.20;91.00;;;;;;4978095;28;20464;-44
2023/11/18 02:29:02;;;;;;;3.50;3.20;;;9.20;91.00;;;;;;4988124;28;20433;-44
2023/11/18 02:31:37;;;;;;;4.30;3.20;;;9.20;91.00;;;;;;4981830;28;20531;-44
2023/11/18 02:34:12;;;;;;;2.73;2.43;;;9.20;91.00;;;;;;4980714;28;20440;-44
2023/11/18 02:36:45;;;;;;;3.73;3.30;;;9.20;91.00;;;;;;4989340;28;20551;-44
2023/11/18 02:39:23;;;;;;;3.50;2.97;;;9.30;91.10;;;;;;5000200;28;20430;-45
2023/11/18 02:41:56;;;;;;;3.60;3.30;;;9.30;91.10;;;;;;4999980;28;20875;-43
2023/11/18 02:44:30;;;;;;;5.40;4.80;;;9.20;91.00;;;;;;5000464;28;20543;-44
2023/11/18 02:46:59;;;;;;;3.60;3.30;;;9.20;91.00;;;;;;4990161;28;20893;-44
2023/11/18 02:49:27;;;;;;;4.00;3.47;;;9.20;91.00;;;;;;4986951;28;20445;-44
2023/11/18 02:51:55;;;;;;;4.27;3.23;;;9.20;91.00;;;;;;4982157;28;20916;-44
2023/11/18 02:54:24;;;;;;;3.50;3.20;;;9.20;91.00;;;;;;4980776;28;20808;-43
2023/11/18 02:56:54;;;;;;;3.67;3.10;;;9.20;91.00;;;;;;4989316;28;20466;-43
2023/11/18 02:59:22;;;;;;;4.00;3.30;;;9.20;91.00;;;;;;4984612;28;20466;-45
2023/11/18 03:01:54;;;;;;;3.50;3.00;;;9.20;91.00;;;;;;4991271;28;20461;-43
2023/11/18 03:04:27;;;;;;;3.47;2.87;;;9.20;91.00;;;;;;4994051;28;20887;-43
2023/11/18 03:06:57;;;;;;;3.47;3.17;;;9.20;91.00;;;;;;5018493;28;20533;-44
2023/11/18 03:09:28;;;;;;;4.50;3.57;;;9.20;91.00;;;;;;5007729;28;20436;-44
2023/11/18 03:12:00;;;;;;;5.47;3.70;;;9.20;91.00;;;;;;4984545;28;20556;-44
2023/11/18 03:14:29;;;;;;;4.27;3.50;;;9.20;91.50;;;;;;4988374;28;20525;-43
2023/11/18 03:16:57;;;;;;;4.00;3.40;;;9.20;91.00;;;;;;4982400;28;20851;-43
2023/11/18 03:19:26;;;;;;;3.60;3.30;;;9.20;91.00;;;;;;4978620;28;20447;-43
2023/11/18 03:21:57;;;;;;;6.17;4.23;;;9.20;91.00;;;;;;4989335;28;21013;-43
2023/11/18 03:24:26;;;;;;;3.90;3.53;;;9.20;91.00;;;;;;4986676;28;20998;-44
2023/11/18 03:26:54;;;;;;;3.83;3.50;;;9.20;91.10;;;;;;5004457;28;20461;-43
2023/11/18 03:29:24;;;;;;;3.83;3.30;;;9.10;91.00;;;;;;5002429;28;20469;-44
2023/11/18 03:31:53;;;;;;;5.03;2.77;;;9.10;91.10;;;;;;4990971;28;20461;-44
2023/11/18 03:34:21;;;;;;;3.50;2.93;;;9.10;91.00;;;;;;4981272;28;20858;-43
2023/11/18 03:36:51;;;;;;;4.80;3.83;;;9.10;91.10;;;;;;4981681;28;20492;-43
2023/11/18 03:39:19;;;;;;;3.40;2.73;;;9.10;91.10;;;;;;4977964;28;20833;-44
2023/11/18 03:41:47;;;;;;;3.70;3.30;;;9.10;91.10;;;;;;4989186;28;20469;-44
2023/11/18 03:44:20;;;;;;;3.47;2.83;;;9.10;91.10;;;;;;4985793;28;20990;-44
2023/11/18 03:46:49;;;;;;;3.17;2.87;;;9.10;91.10;;;;;;4986501;28;20457;-44
2023/11/18 03:49:17;;;;;;;4.13;3.50;;;9.10;91.10;;;;;;4987378;28;20460;-43
2023/11/18 03:51:45;;;;;;;3.50;3.20;;;9.10;91.10;;;;;;5009947;28;20466;-43
2023/11/18 03:54:13;;;;;;;3.60;3.20;;;9.10;91.00;;;;;;5016765;28;20471;-45
2023/11/18 03:56:42;;;;;;;3.37;3.07;;;9.10;91.00;;;;;;4990639;28;20467;-44
2023/11/18 03:59:13;;;;;;;4.67;2.83;;;9.10;91.50;;;;;;4983519;28;20481;-44
2023/11/18 04:01:41;;;;;;;3.63;3.17;;;9.10;91.00;;;;;;4991597;28;20464;-43
2023/11/18 04:04:11;;;;;;;4.23;3.47;;;9.10;91.00;;;;;;4991312;28;20987;-44
2023/11/18 04:06:39;;;;;;;4.83;3.77;;;9.10;91.00;;;;;;5019177;28;20492;-43
2023/11/18 04:09:09;;;;;;;3.70;3.00;;;9.10;91.00;;;;;;5021222;28;20436;-44
2023/11/18 04:11:38;;;;;;;3.07;2.43;;;9.10;91.00;;;;;;5006866;28;20535;-44
2023/11/18 04:14:07;;;;;;;3.37;2.87;;;9.10;91.00;;;;;;5009061;28;20503;-44
2023/11/18 04:16:36;;;;;;;3.87;3.17;;;9.10;91.00;;;;;;5013705;28;20859;-44
2023/11/18 04:19:06;;;;;;;3.80;3.17;;;9.10;91.00;;;;;;5006946;28;20539;-44
2023/11/18 04:21:35;;;;;;;3.60;3.00;;;9.10;91.00;;;;;;5016993;28;20471;-43
2023/11/18 04:24:05;;;;;;;3.67;3.10;;;9.10;91.00;;;;;;5016278;28;20456;-44
2023/11/18 04:26:33;;;;;;;3.83;3.40;;;9.10;91.00;;;;;;5000198;28;20466;-43
2023/11/18 04:29:02;;;;;;;3.97;3.07;;;9.10;91.00;;;;;;4997846;28;20432;-44
2023/11/18 04:31:30;;;;;;;6.30;4.53;;;9.10;91.00;;;;;;4988944;28;20600;-43
2023/11/18 04:33:58;;;;;;;3.20;2.80;;;9.10;91.00;;;;;;4986056;28;21092;-43
2023/11/18 04:36:26;;;;;;;4.07;3.30;;;9.10;91.00;;;;;;5004655;28;20480;-43
2023/11/18 04:38:56;;;;;;;3.40;2.70;;;9.10;91.10;;;;;;4980996;28;20431;-43
2023/11/18 04:41:24;;;;;;;3.50;2.83;;;9.10;91.00;;;;;;4986638;28;20520;-43
2023/11/18 04:43:53;;;;;;;3.87;2.83;;;9.10;91.00;;;;;;4989339;28;20426;-45
2023/11/18 04:46:21;;;;;;;2.53;2.17;;;9.10;91.00;;;;;;4975882;28;20469;-44
2023/11/18 04:48:50;;;;;;;3.60;2.40;;;9.10;91.00;;;;;;4976741;28;20449;-43
2023/11/18 04:51:18;;;;;;;3.53;3.20;;;9.10;91.00;;;;;;4984614;28;20469;-44
2023/11/18 04:53:49;;;;;;;3.80;2.97;;;9.10;91.00;;;;;;4980022;28;20431;-44
2023/11/18 04:56:19;;;;;;;3.93;3.00;;;9.10;91.00;;;;;;4983942;28;20485;-43
2023/11/18 04:58:47;;;;;;;4.10;3.00;;;9.10;91.00;;;;;;4983610;28;20437;-43
2023/11/18 05:01:16;;;;;;;3.17;2.87;;;9.10;91.00;;;;;;4988570;28;20472;-44
2023/11/18 05:03:44;;;;;;;4.53;3.80;;;9.10;91.00;;;;;;4982744;28;20447;-44
2023/11/18 05:06:12;;;;;;;3.00;2.80;;;9.00;91.00;;;;;;4992085;28;20469;-43
2023/11/18 05:08:40;;;;;;;3.47;3.17;;;9.00;91.00;;;;;;5017699;28;20422;-44
2023/11/18 05:11:08;;;;;;;4.70;3.57;;;9.00;91.00;;;;;;5005968;28;20461;-43
2023/11/18 05:13:39;;;;;;;3.63;2.90;;;9.00;91.00;;;;;;5003956;28;20536;-44
2023/11/18 05:16:07;;;;;;;3.83;3.00;;;9.00;91.00;;;;;;5005175;28;20475;-43
2023/11/18 05:18:36;;;;;;;4.07;3.67;;;9.00;91.10;;;;;;5006930;28;20915;-43
2023/11/18 05:21:06;;;;;;;5.07;2.97;;;9.00;91.10;;;;;;4990357;28;20461;-44
2023/11/18 05:23:35;;;;;;;3.60;2.80;;;9.00;91.10;;;;;;4985943;28;20434;-43
2023/11/18 05:26:05;;;;;;;4.00;3.53;;;9.00;91.10;;;;;;4982500;28;20480;-44
2023/11/18 05:28:34;;;;;;;4.50;3.40;;;9.00;91.10;;;;;;4986926;28;20890;-45
2023/11/18 05:31:04;;;;;;;4.13;3.30;;;9.00;91.20;;;;;;4983690;28;20889;-43
2023/11/18 05:33:35;;;;;;;4.70;3.40;;;9.00;91.20;;;;;;4987245;28;20453;-44
2023/11/18 05:36:05;;;;;;;3.03;2.70;;;9.00;91.20;;;;;;4985141;28;20474;-44
2023/11/18 05:38:35;;;;;;;3.10;2.80;;;9.00;91.20;;;;;;4986670;28;20859;-43
2023/11/18 05:41:06;;;;;;;4.60;2.93;;;9.00;91.10;;;;;;4979520;28;20520;-43
2023/11/18 05:43:39;;;;;;;3.30;3.00;;;9.00;91.10;;;;;;4988234;28;20492;-44
2023/11/18 05:46:20;;;;;;;4.50;3.57;;;9.00;91.10;;;;;;4985072;28;20995;-44
2023/11/18 05:48:50;;;;;;;4.30;3.13;;;9.00;91.10;;;;;;4985364;28;20475;-43
2023/11/18 05:51:21;;;;;;;3.70;3.40;;;9.00;91.10;;;;;;4987170;28;20987;-44
2023/11/18 05:53:51;;;;;;;3.60;3.30;;;9.00;91.10;;;;;;4989619;28;20442;-43
2023/11/18 05:56:22;;;;;;;4.30;3.07;;;9.00;91.10;;;;;;4978309;28;20548;-43
2023/11/18 05:58:50;;;;;;;2.77;2.40;;;8.90;91.10;;;;;;4985235;28;20551;-44
2023/11/18 06:01:20;;;;;;;3.80;3.07;;;9.00;91.10;;;;;;4988956;28;20496;-45
2023/11/18 06:03:49;;;;;;;5.70;3.40;;;9.00;91.10;;;;;;4981616;28;20886;-43
2023/11/18 06:06:18;;;;;;;2.77;2.53;;;8.90;91.10;;;;;;4987814;28;20548;-44
2023/11/18 06:08:53;;;;;;;3.20;2.83;;;8.90;91.10;;;;;;4987982;28;20462;-43
2023/11/18 06:11:23;;;;;;;5.33;2.60;;;8.90;91.10;;;;;;4984882;28;20557;-43
2023/11/18 06:13:53;;;;;;;3.30;2.90;;;8.90;91.10;;;;;;4990281;28;20434;-43
2023/11/18 06:16:24;;;;;;;3.80;3.50;;;8.90;91.10;;;;;;4988933;28;20847;-44
2023/11/18 06:18:55;;;;;;;5.10;3.43;;;8.90;91.20;;;;;;4985449;28;20446;-44
2023/11/18 06:21:29;;;;;;;3.10;2.47;;;8.90;91.20;;;;;;4985291;28;21280;-43
2023/11/18 06:23:58;;;;;;;4.07;2.60;;;8.90;91.10;;;;;;4985433;28;20428;-43
2023/11/18 06:26:31;;;;;;;3.90;3.03;;;8.90;91.20;;;;;;4986750;28;20994;-44
2023/11/18 06:28:59;;;;;;;3.07;2.47;;;8.90;91.30;;;;;;4989645;28;21076;-43
2023/11/18 06:31:29;;;;;;;3.47;3.17;;;8.90;91.20;;;;;;5000256;28;20469;-45
2023/11/18 06:33:57;;;;;;;4.80;3.17;;;8.90;91.30;;;;;;5005048;28;20449;-44
2023/11/18 06:36:26;;;;;;;2.90;2.60;;;8.90;91.20;;;;;;4997913;28;20473;-44
2023/11/18 06:38:56;;;;;;;3.03;2.57;;;8.90;91.20;;;;;;4997543;28;20467;-43
2023/11/18 06:41:25;;;;;;;3.53;3.10;;;8.90;91.20;;;;;;4999950;28;20464;-44
2023/11/18 06:44:00;;;;;;;3.27;2.57;;;8.90;91.20;;;;;;5002346;28;20433;-44
2023/11/18 06:46:33;;;;;;;3.40;2.70;;;8.90;91.20;;;;;;4996401;28;20461;-43
2023/11/18 06:49:06;;;;;;;2.80;2.50;;;8.90;91.10;;;;;;5000666;28;20445;-44
2023/11/18 06:51:37;;;;;;;2.60;2.40;;;8.90;91.10;;;;;;4999291;28;20462;-43
2023/11/18 06:54:08;;;;;;;2.90;2.60;;;8.90;91.10;;;;;;5002434;28;20780;-43
2023/11/18 06:56:43;;;;;;;3.30;2.50;;;8.90;91.00;;;;;;5036074;23;20501;-45
2023/11/18 06:59:13;;;;;;;2.87;2.57;;;8.90;91.00;;;;;;4969522;28;20950;-46
2023/11/18 07:04:35;;;;;;;3.93;3.10;;;8.90;91.10;;;;;;4967228;28;20987;-45
2023/11/18 07:07:04;;;;;;;4.80;3.40;;;8.90;91.20;;;;;;4955848;28;20467;-43
2023/11/18 07:09:35;;;;;;;3.30;2.50;;;8.90;91.20;;;;;;4946751;28;20475;-44
2023/11/18 07:12:04;;;;;;;3.73;2.30;;;8.90;91.20;;;;;;4965719;28;20545;-45
2023/11/18 07:14:34;;;;;;;2.67;2.30;;;8.90;91.20;;;;;;4969923;28;20493;-48
2023/11/18 07:17:06;;;;;;;4.40;3.10;;;8.90;91.20;;;;;;4965770;28;21065;-47
2023/11/18 07:19:37;;;;;;;3.33;2.40;;;8.90;91.20;;;;;;4967356;28;20452;-44
2023/11/18 07:22:06;;;;;;;3.00;2.67;;;8.90;91.20;;;;;;4969645;28;20983;-47
2023/11/18 07:24:36;;;;;;;2.97;2.13;;;8.90;91.20;;;;;;4950967;28;20538;-47
2023/11/18 07:27:05;;;;;;;3.30;2.73;;;8.90;91.20;;;;;;4968608;28;20534;-45
2023/11/18 07:29:33;;;;;;;3.00;2.60;;;8.90;91.20;;;;;;4969779;28;20450;-44
2023/11/18 07:32:05;;;;;;;3.80;3.20;;;8.90;91.20;;;;;;4964005;28;20833;-48
2023/11/18 07:34:33;;;;;;;6.13;3.43;;;8.90;91.30;;;;;;4969529;28;20983;-45
2023/11/18 07:37:03;;;;;;;4.47;3.00;;;8.90;91.40;;;;;;4971984;28;21030;-46
2023/11/18 07:39:43;;;;;;;6.23;3.17;;;8.90;91.40;;;;;;4964299;28;20541;-45
2023/11/18 07:42:13;;;;;;;6.90;4.70;;;8.80;91.30;;;;;;4965779;28;20497;-46
2023/11/18 07:44:42;;;;;;;4.80;3.27;;;8.90;92.70;;;;;;4969328;28;20427;-46
2023/11/18 07:47:11;;;;;;;4.97;4.07;;;8.80;92.30;;;;;;4971010;28;20864;-45
2023/11/18 07:49:40;;;;;;;4.37;3.20;;;8.80;92.20;;;;;;4965240;28;20439;-44
2023/11/18 07:52:10;;;;;;;4.40;3.28;;;8.80;92.20;;;;;;4967707;28;20470;-44
2023/11/18 07:54:39;;;;;;;4.67;3.20;;;8.80;92.20;;;;;;4969649;28;20192;-46
2023/11/18 07:57:10;;;;;;;4.80;3.30;;;8.80;92.10;;;;;;4968964;28;20510;-46
2023/11/18 07:59:38;;;;;;;3.03;2.67;;;8.80;92.10;;;;;;4968845;28;20465;-45
2023/11/18 08:02:10;;;;;;;4.10;2.73;;;8.90;92.10;;;;;;4970822;28;21189;-45
2023/11/18 08:04:40;;;;;;;3.77;2.70;;;8.90;92.00;;;;;;4964463;28;20478;-45
2023/11/18 08:07:10;;;;;;;3.47;2.40;;;8.90;91.90;;;;;;4968762;28;20911;-44
2023/11/18 08:09:39;;;;;;;3.53;2.70;;;8.90;92.00;;;;;;4970522;28;20459;-44
2023/11/18 08:12:09;;;;;;;3.60;3.13;;;8.90;91.90;;;;;;4969423;28;20470;-48
2023/11/18 08:14:39;;;;;;;4.70;2.67;;;8.90;91.90;;;;;;4973052;28;20465;-47
2023/11/18 08:17:07;;;;;;;3.33;2.63;;;8.90;91.80;;;;;;4970742;28;20474;-48
2023/11/18 08:19:35;;;;;;;2.57;2.27;;;9.00;91.90;;;;;;4965100;28;20968;-46
2023/11/18 08:22:10;;;;;;;3.80;2.47;;;8.90;91.80;;;;;;4967034;28;20469;-46
2023/11/18 08:24:39;;;;;;;2.87;1.83;;;8.90;91.90;;;;;;4967383;28;20506;-46
2023/11/18 08:27:07;;;;;;;2.67;2.10;;;8.90;91.90;;;;;;4969957;28;20482;-47
2023/11/18 08:29:36;;;;;;;2.80;2.27;;;9.00;91.80;;;;;;4971899;28;20991;-47
2023/11/18 08:32:04;;;;;;;2.97;2.33;;;9.00;91.90;;;;;;4965632;28;20489;-46
2023/11/18 08:34:33;;;;;;;3.20;1.90;;;9.00;91.90;;;;;;4962574;28;20451;-44
2023/11/18 08:37:03;;;;;;;3.47;2.20;;;9.00;91.90;;;;;;4971036;28;20482;-47
2023/11/18 08:39:32;;;;;;;2.77;2.10;;;9.00;91.90;;;;;;4970123;28;20475;-46
2023/11/18 08:42:01;;;;;;;2.23;1.80;;;9.00;92.00;;;;;;4968956;28;20462;-46
2023/11/18 08:44:29;;;;;;;3.50;1.90;;;9.00;92.00;;;;;;4970147;28;20439;-43
2023/11/18 08:46:58;;;;;;;8.00;2.30;;;9.00;91.80;;;;;;4969505;28;20482;-43
2023/11/18 08:49:33;;;;;;;3.33;2.00;;;9.00;92.30;;;;;;4967861;28;20442;-44
2023/11/18 08:52:01;;;;;;;4.17;1.73;;;9.00;92.50;;;;;;4968948;28;20447;-47
2023/11/18 08:54:36;;;;;;;5.50;2.00;;;9.00;92.50;;;;;;4969341;28;21000;-45
2023/11/18 08:57:23;;;;;;;3.53;2.47;;;9.00;92.50;;;;;;4969272;28;20541;-45
2023/11/18 08:59:51;;;;;;;4.50;2.27;;;9.00;92.90;;;;;;4967601;28;20431;-45
2023/11/18 09:02:23;;;;;;;6.53;2.13;;;9.00;92.70;;;;;;4962829;28;20981;-44
2023/11/18 09:04:52;;;;;;;6.60;2.33;;;9.00;92.70;;;;;;4970899;28;20499;-45
2023/11/18 09:07:21;;;;;;;4.53;2.63;;;9.00;92.60;;;;;;4971243;28;20474;-47
2023/11/18 09:09:52;;;;;;;7.10;2.20;;;9.00;92.60;;;;;;4968414;28;20450;-50
2023/11/18 09:12:22;;;;;;;3.20;2.13;;;9.00;92.60;;;;;;4967998;28;20461;-48
2023/11/18 09:14:51;;;;;;;3.03;2.47;;;9.00;92.60;;;;;;4971494;28;20427;-45
2023/11/18 09:17:22;;;;;;;2.77;1.50;;;9.00;92.50;;;;;;4971314;28;20482;-45
2023/11/18 09:19:52;;;;;;;2.23;1.80;;;9.00;92.50;;;;;;4965664;28;20992;-47
2023/11/18 09:22:20;;;;;;;2.90;1.77;;;9.00;92.50;;;;;;4966393;28;20479;-46
2023/11/18 09:24:49;;;;;;;3.93;2.77;;;9.00;92.60;;;;;;4964728;28;20680;-45
2023/11/18 09:27:17;;;;;;;5.03;2.37;;;9.00;92.50;;;;;;4963504;28;20470;-47
2023/11/18 09:29:49;;;;;;;3.47;1.73;;;9.00;92.50;;;;;;4966510;28;20438;-44
2023/11/18 09:32:18;;;;;;;4.90;2.43;;;9.00;92.50;;;;;;4966030;28;20463;-46
2023/11/18 09:34:48;;;;;;;2.90;2.20;;;9.00;92.50;;;;;;4962118;28;20446;-46
2023/11/18 09:37:16;;;;;;;3.57;2.33;;;9.00;92.50;;;;;;4966160;28;21027;-44
2023/11/18 09:39:45;;;;;;;4.07;1.83;;;9.00;92.50;;;;;;4968602;28;20434;-45
2023/11/18 09:42:18;;;;;;;4.50;1.70;;;9.00;92.30;;;;;;4971231;28;20976;-44
2023/11/18 09:44:48;;;;;;;2.73;1.67;;;9.00;92.40;;;;;;4968073;28;20455;-44
2023/11/18 09:47:24;;;;;;;3.00;1.93;;;9.00;92.50;;;;;;4965605;28;21067;-43
2023/11/18 09:49:59;;;;;;;3.80;2.08;;;9.00;92.40;;;;;;4968397;28;20442;-45
2023/11/18 09:52:27;;;;;;;3.50;1.90;;;9.00;92.30;;;;;;4967682;28;20218;-46
2023/11/18 09:55:04;;;;;;;3.00;2.10;;;9.00;92.20;;;;;;4968973;28;20451;-44
2023/11/18 09:57:37;;;;;;;6.87;1.80;;;9.10;92.30;;;;;;4967214;28;20507;-46
2023/11/18 10:00:21;;;;;;;5.33;1.97;;;9.10;93.10;;;;;;4969895;28;20435;-47
2023/11/18 10:02:51;;;;;;;2.90;1.70;;;9.10;92.20;;;;;;4969796;28;20458;-45
2023/11/18 10:05:22;;;;;;;3.33;1.50;;;9.10;92.00;;;;;;4965322;28;20447;-45
2023/11/18 10:07:51;;;;;;;3.60;2.10;;;9.10;91.80;;;;;;4965543;28;20474;-45
2023/11/18 10:10:20;;;;;;;2.33;1.70;;;9.10;91.90;;;;;;4965035;28;20494;-45
2023/11/18 10:12:52;;;;;;;2.23;1.60;;;9.10;92.30;;;;;;4965668;28;20852;-45
2023/11/18 10:15:23;;;;;;;3.53;1.73;;;9.10;92.30;;;;;;4968368;28;20525;-47
2023/11/18 10:17:59;;;;;;;2.37;1.40;;;9.10;92.20;;;;;;4968537;28;20459;-48
2023/11/18 10:20:46;;;;;;;5.03;1.37;;;9.10;92.10;;;;;;4962113;28;20458;-47
2023/11/18 10:23:19;;;;;;;3.00;1.70;;;9.10;91.90;;;;;;4962335;28;20438;-48
2023/11/18 10:25:52;;;;;;;2.10;1.33;;;9.10;92.00;;;;;;4964400;28;20739;-44
2023/11/18 10:28:28;;;;;;;3.00;1.80;;;9.10;91.80;;;;;;4968488;28;20478;-44
2023/11/18 10:31:03;;;;;;;4.63;1.67;;;9.10;92.00;;;;;;4958922;28;20844;-45
2023/11/18 10:33:37;;;;;;;2.73;1.60;;;9.10;92.00;;;;;;4948264;28;21059;-45
2023/11/18 10:36:22;;;;;;;3.33;2.50;;;9.10;92.30;;;;;;4964913;28;20521;-46
2023/11/18 10:38:55;;;;;;;3.23;1.60;;;9.10;92.50;;;;;;4966883;28;20435;-46
2023/11/18 10:41:24;;;;;;;2.53;1.80;;;9.10;92.30;;;;;;4963028;28;20462;-50
2023/11/18 10:44:06;;;;;;;2.17;1.43;;;9.00;92.40;;;;;;4965853;28;20466;-45
2023/11/18 10:46:38;;;;;;;4.17;2.23;;;9.00;92.40;;;;;;4968832;28;20884;-46
2023/11/18 10:49:09;;;;;;;2.67;1.50;;;9.00;92.50;;;;;;4958377;28;20477;-48
2023/11/18 10:51:38;;;;;;;2.50;1.57;;;9.00;92.50;;;;;;4964157;28;20471;-45
2023/11/18 10:54:17;;;;;;;2.53;1.90;;;9.00;92.40;;;;;;4969065;28;20449;-45
2023/11/18 10:56:48;;;;;;;4.13;1.50;;;9.00;92.50;;;;;;4960488;28;20474;-47
2023/11/18 10:59:20;;;;;;;4.60;1.77;;;9.00;92.40;;;;;;4963487;28;20486;-47
2023/11/18 11:01:50;;;;;;;5.47;1.90;;;9.00;92.50;;;;;;4948680;28;20467;-47
2023/11/18 11:04:20;;;;;;;1.80;1.23;;;9.00;92.70;;;;;;4968532;28;20509;-46
2023/11/18 11:06:53;;;;;;;3.90;1.80;;;9.00;92.70;;;;;;4956355;28;20905;-44
2023/11/18 11:09:26;;;;;;;2.10;1.60;;;9.00;92.80;;;;;;4959594;28;20494;-50
2023/11/18 11:11:59;;;;;;;5.00;1.70;;;9.00;92.70;;;;;;4965582;28;20992;-47
2023/11/18 11:14:36;;;;;;;2.80;2.10;;;9.00;92.70;;;;;;4967824;28;20490;-45
2023/11/18 11:17:15;;;;;;;2.00;1.70;;;9.00;92.80;;;;;;4967637;28;20466;-46
2023/11/18 11:19:58;;;;;;;3.60;2.20;;;9.00;92.80;;;;;;4959968;28;20514;-45
2023/11/18 11:22:35;;;;;;;2.63;1.77;;;8.90;92.80;;;;;;4966753;28;20473;-45
2023/11/18 11:25:21;;;;;;;2.63;1.80;;;9.00;93.00;;;;;;4960915;28;20450;-46
2023/11/18 11:28:01;;;;;;;2.17;1.63;;;9.00;93.00;;;;;;4965598;28;20470;-47
2023/11/18 11:30:32;;;;;;;2.10;1.30;;;9.00;93.10;;;;;;4960591;28;20991;-44
2023/11/18 11:33:12;;;;;;;2.07;1.67;;;9.00;93.10;;;;;;4962362;28;20865;-46
2023/11/18 11:35:44;;;;;;;3.67;1.70;;;9.00;93.00;;;;;;4963460;28;20468;-44
2023/11/18 11:38:16;;;;;;;3.33;1.80;;;9.00;93.20;;;;;;4962341;28;20466;-46
2023/11/18 11:40:47;;;;;;;3.87;1.83;;;9.00;93.10;;;;;;4962161;28;20506;-44
2023/11/18 11:43:21;;;;;;;3.40;1.50;;;9.00;93.10;;;;;;4968829;28;20435;-45
2023/11/18 11:45:51;;;;;;;2.37;1.10;;;9.00;93.10;;;;;;4965617;28;20469;-46
2023/11/18 11:48:27;;;;;;;2.03;1.23;;;9.00;93.10;;;;;;4963964;28;20475;-45
2023/11/18 11:51:13;;;;;;;2.07;1.50;;;9.00;93.20;;;;;;4961356;28;20474;-46
2023/11/18 11:53:53;;;;;;;1.80;1.10;;;9.00;93.10;;;;;;4968411;28;20829;-45
2023/11/18 11:56:24;;;;;;;2.20;1.30;;;9.00;93.10;;;;;;4961342;28;20491;-46
2023/11/18 11:58:53;;;;;;;2.20;1.67;;;9.00;93.00;;;;;;4967385;28;21011;-45
2023/11/18 12:01:32;;;;;;;2.97;1.60;;;9.00;93.10;;;;;;4966683;28;20549;-50
2023/11/18 12:04:06;;;;;;;2.13;1.20;;;9.00;93.10;;;;;;4972001;28;20439;-44
2023/11/18 12:06:42;;;;;;;2.00;1.30;;;9.00;93.00;;;;;;4952188;28;20468;-45
2023/11/18 12:09:12;;;;;;;2.80;1.40;;;9.00;93.10;;;;;;4946514;29;20471;-44
2023/11/18 12:11:46;;;;;;;3.00;1.80;;;9.00;92.90;;;;;;4946527;28;21057;-44
2023/11/18 12:14:32;;;;;;;3.13;1.53;;;9.00;92.90;;;;;;4949219;28;20451;-44
2023/11/18 12:17:13;;;;;;;2.50;1.20;;;9.00;93.20;;;;;;4947227;29;20478;-44
2023/11/18 12:19:47;;;;;;;5.40;1.40;;;9.00;93.00;;;;;;4935679;29;20724;-45
2023/11/18 12:22:24;;;;;;;2.90;1.80;;;9.00;93.30;;;;;;4945929;28;20504;-44
2023/11/18 12:25:33;;;;;;;2.43;1.60;;;9.00;93.20;;;;;;4948903;28;20833;-46
2023/11/18 12:28:11;;;;;;;2.40;1.27;;;9.00;93.20;;;;;;4969060;28;21023;-45
2023/11/18 12:30:48;;;;;;;1.90;1.17;;;9.00;93.20;;;;;;4965116;28;20517;-46
2023/11/18 12:33:18;;;;;;;2.83;0.97;;;9.00;93.20;;;;;;4971005;28;20454;-46
2023/11/18 12:36:34;;;;;;;2.03;1.20;;;8.90;93.20;;;;;;4971177;28;20538;-45
2023/11/18 12:39:44;;;;;;;2.53;1.60;;;8.90;93.40;;;;;;4969642;28;20991;-46
2023/11/18 12:42:34;;;;;;;1.90;1.40;;;8.90;93.30;;;;;;4966351;28;20478;-45
2023/11/18 12:45:26;;;;;;;1.80;1.10;;;8.90;93.30;;;;;;4965849;28;20455;-47
2023/11/18 12:47:58;;;;;;;1.73;1.00;;;8.90;93.20;;;;;;4970786;28;21067;-47
2023/11/18 12:50:28;;;;;;;2.07;1.23;;;8.90;93.30;;;;;;4965500;28;20503;-44
2023/11/18 12:52:57;;;;;;;2.70;1.40;;;8.90;93.40;;;;;;4959034;28;20470;-45
2023/11/18 12:55:29;;;;;;;1.70;1.20;;;8.90;93.50;;;;;;4963724;28;20802;-45
2023/11/18 12:58:00;;;;;;;2.90;1.30;;;8.90;93.40;;;;;;4968808;28;20451;-45
2023/11/18 13:00:34;;;;;;;2.40;1.40;;;8.90;93.50;;;;;;4965232;28;20479;-47
2023/11/18 13:03:02;;;;;;;1.83;1.10;;;8.90;93.40;;;;;;4969359;28;20443;-45
2023/11/18 13:05:30;;;;;;;1.60;0.90;;;8.90;93.50;;;;;;4967225;28;20908;-45
2023/11/18 13:08:00;;;;;;;2.70;1.27;;;8.90;93.60;;;;;;4969106;28;20451;-47
2023/11/18 13:10:30;;;;;;;1.67;1.10;;;8.90;93.40;;;;;;4967382;28;20478;-46
2023/11/18 13:13:00;;;;;;;4.00;1.27;;;8.90;93.60;;;;;;4966253;28;20599;-48
2023/11/18 13:15:28;;;;;;;1.73;1.13;;;8.90;93.70;;;;;;4968773;28;20474;-45
2023/11/18 13:18:00;;;;;;;1.90;1.10;;;8.90;93.50;;;;;;4969614;28;20462;-45
2023/11/18 13:20:30;;;;;;;3.23;1.40;;;8.90;93.70;;;;;;4962787;28;20533;-46
2023/11/18 13:23:00;;;;;;;2.17;1.20;;;8.90;93.90;;;;;;4970033;28;20809;-45